sensor_id;sensor_type;location;lat;lon;timestamp;P1;durP1;ratioP1;P2;durP2;ratioP2
56171;SDS011;42052;41.634;-0.946;2023-06-22T00:01:32;2.47;;;1.70;;
56171;SDS011;42052;41.634;-0.946;2023-06-22T00:04:18;2.72;;;1.80;;
56171;SDS011;42052;41.634;-0.946;2023-06-22T00:07:04;2.58;;;1.98;;
56171;SDS011;42052;41.634;-0.946;2023-06-22T00:09:50;2.70;;;2.00;;
56171;SDS011;42052;41.634;-0.946;2023-06-22T00:12:37;2.28;;;1.88;;
56171;SDS011;42052;41.634;-0.946;2023-06-22T00:15:23;2.38;;;1.90;;
56171;SDS011;42052;41.634;-0.946;2023-06-22T00:18:09;2.63;;;1.98;;
56171;SDS011;42052;41.634;-0.946;2023-06-22T00:20:56;3.33;;;1.88;;
56171;SDS011;42052;41.634;-0.946;2023-06-22T00:23:43;2.08;;;1.80;;
56171;SDS011;42052;41.634;-0.946;2023-06-22T00:26:29;2.28;;;1.80;;
56171;SDS011;42052;41.634;-0.946;2023-06-22T00:29:15;2.08;;;1.80;;
56171;SDS011;42052;41.634;-0.946;2023-06-22T00:32:04;3.55;;;2.03;;
56171;SDS011;42052;41.634;-0.946;2023-06-22T00:34:50;2.22;;;1.95;;
56171;SDS011;42052;41.634;-0.946;2023-06-22T00:37:36;2.00;;;1.80;;
56171;SDS011;42052;41.634;-0.946;2023-06-22T00:40:23;2.92;;;1.80;;
56171;SDS011;42052;41.634;-0.946;2023-06-22T00:43:09;2.95;;;1.83;;
56171;SDS011;42052;41.634;-0.946;2023-06-22T00:45:56;3.05;;;2.08;;
56171;SDS011;42052;41.634;-0.946;2023-06-22T00:48:42;2.83;;;2.00;;
56171;SDS011;42052;41.634;-0.946;2023-06-22T00:51:29;2.20;;;2.00;;
56171;SDS011;42052;41.634;-0.946;2023-06-22T00:54:15;2.25;;;1.75;;
56171;SDS011;42052;41.634;-0.946;2023-06-22T00:57:01;1.98;;;1.77;;
56171;SDS011;42052;41.634;-0.946;2023-06-22T00:59:48;2.55;;;1.92;;
56171;SDS011;42052;41.634;-0.946;2023-06-22T01:02:34;2.38;;;1.85;;
56171;SDS011;42052;41.634;-0.946;2023-06-22T01:05:22;2.20;;;2.00;;
56171;SDS011;42052;41.634;-0.946;2023-06-22T01:14:14;2.40;;;1.80;;
56171;SDS011;42052;41.634;-0.946;2023-06-22T01:17:06;2.40;;;1.88;;
56171;SDS011;42052;41.634;-0.946;2023-06-22T01:19:55;2.67;;;1.60;;
56171;SDS011;42052;41.634;-0.946;2023-06-22T01:23:26;2.28;;;2.05;;
56171;SDS011;42052;41.634;-0.946;2023-06-22T01:29:24;1.90;;;1.70;;
56171;SDS011;42052;41.634;-0.946;2023-06-22T01:32:12;1.90;;;1.70;;
56171;SDS011;42052;41.634;-0.946;2023-06-22T01:35:00;2.05;;;1.75;;
56171;SDS011;42052;41.634;-0.946;2023-06-22T01:37:48;2.10;;;1.73;;
56171;SDS011;42052;41.634;-0.946;2023-06-22T01:40:35;2.72;;;1.90;;
56171;SDS011;42052;41.634;-0.946;2023-06-22T01:43:23;2.20;;;1.90;;
56171;SDS011;42052;41.634;-0.946;2023-06-22T01:46:11;1.98;;;1.70;;
56171;SDS011;42052;41.634;-0.946;2023-06-22T01:48:58;1.95;;;1.77;;
56171;SDS011;42052;41.634;-0.946;2023-06-22T01:51:44;2.92;;;1.60;;
56171;SDS011;42052;41.634;-0.946;2023-06-22T01:54:31;1.70;;;1.60;;
56171;SDS011;42052;41.634;-0.946;2023-06-22T01:57:17;1.90;;;1.70;;
56171;SDS011;42052;41.634;-0.946;2023-06-22T02:00:04;1.98;;;1.70;;
56171;SDS011;42052;41.634;-0.946;2023-06-22T02:03:01;2.15;;;1.80;;
56171;SDS011;42052;41.634;-0.946;2023-06-22T02:05:55;2.22;;;1.90;;
56171;SDS011;42052;41.634;-0.946;2023-06-22T02:08:51;2.67;;;1.90;;
56171;SDS011;42052;41.634;-0.946;2023-06-22T02:11:42;1.88;;;1.50;;
56171;SDS011;42052;41.634;-0.946;2023-06-22T02:14:31;2.38;;;1.80;;
56171;SDS011;42052;41.634;-0.946;2023-06-22T02:17:17;1.77;;;1.67;;
56171;SDS011;42052;41.634;-0.946;2023-06-22T02:20:04;2.05;;;1.85;;
56171;SDS011;42052;41.634;-0.946;2023-06-22T02:22:53;2.58;;;1.60;;
56171;SDS011;42052;41.634;-0.946;2023-06-22T02:25:39;2.08;;;1.80;;
56171;SDS011;42052;41.634;-0.946;2023-06-22T02:28:25;2.03;;;1.60;;
56171;SDS011;42052;41.634;-0.946;2023-06-22T02:31:11;2.33;;;1.80;;
56171;SDS011;42052;41.634;-0.946;2023-06-22T02:33:58;1.85;;;1.70;;
56171;SDS011;42052;41.634;-0.946;2023-06-22T02:36:48;2.00;;;1.80;;
56171;SDS011;42052;41.634;-0.946;2023-06-22T02:39:37;2.00;;;1.73;;
56171;SDS011;42052;41.634;-0.946;2023-06-22T02:42:24;1.92;;;1.73;;
56171;SDS011;42052;41.634;-0.946;2023-06-22T02:45:10;2.13;;;1.50;;
56171;SDS011;42052;41.634;-0.946;2023-06-22T02:47:56;1.90;;;1.63;;
56171;SDS011;42052;41.634;-0.946;2023-06-22T02:50:42;2.08;;;1.70;;
56171;SDS011;42052;41.634;-0.946;2023-06-22T02:53:28;2.00;;;1.80;;
56171;SDS011;42052;41.634;-0.946;2023-06-22T02:56:14;2.30;;;1.83;;
56171;SDS011;42052;41.634;-0.946;2023-06-22T02:59:01;1.90;;;1.70;;
56171;SDS011;42052;41.634;-0.946;2023-06-22T03:01:48;2.88;;;1.90;;
56171;SDS011;42052;41.634;-0.946;2023-06-22T03:04:35;2.28;;;1.73;;
56171;SDS011;42052;41.634;-0.946;2023-06-22T03:07:21;1.90;;;1.70;;
56171;SDS011;42052;41.634;-0.946;2023-06-22T03:10:11;2.38;;;1.95;;
56171;SDS011;42052;41.634;-0.946;2023-06-22T03:12:58;2.67;;;1.90;;
56171;SDS011;42052;41.634;-0.946;2023-06-22T03:15:45;2.40;;;1.85;;
56171;SDS011;42052;41.634;-0.946;2023-06-22T03:18:31;2.80;;;1.88;;
56171;SDS011;42052;41.634;-0.946;2023-06-22T03:21:17;2.53;;;1.63;;
56171;SDS011;42052;41.634;-0.946;2023-06-22T03:24:04;1.95;;;1.70;;
56171;SDS011;42052;41.634;-0.946;2023-06-22T03:26:50;2.35;;;1.70;;
56171;SDS011;42052;41.634;-0.946;2023-06-22T03:29:36;1.85;;;1.65;;
56171;SDS011;42052;41.634;-0.946;2023-06-22T03:32:23;3.50;;;1.90;;
56171;SDS011;42052;41.634;-0.946;2023-06-22T03:35:09;2.15;;;1.60;;
56171;SDS011;42052;41.634;-0.946;2023-06-22T03:37:58;2.00;;;1.80;;
56171;SDS011;42052;41.634;-0.946;2023-06-22T03:40:44;1.90;;;1.70;;
56171;SDS011;42052;41.634;-0.946;2023-06-22T03:43:30;1.75;;;1.63;;
56171;SDS011;42052;41.634;-0.946;2023-06-22T03:46:16;1.63;;;1.52;;
56171;SDS011;42052;41.634;-0.946;2023-06-22T03:49:02;2.65;;;1.95;;
56171;SDS011;42052;41.634;-0.946;2023-06-22T03:51:49;2.20;;;2.00;;
56171;SDS011;42052;41.634;-0.946;2023-06-22T03:54:35;2.55;;;1.73;;
56171;SDS011;42052;41.634;-0.946;2023-06-22T03:57:21;3.08;;;1.90;;
56171;SDS011;42052;41.634;-0.946;2023-06-22T04:00:07;2.00;;;1.80;;
56171;SDS011;42052;41.634;-0.946;2023-06-22T04:02:55;2.22;;;1.90;;
56171;SDS011;42052;41.634;-0.946;2023-06-22T04:05:41;3.33;;;2.10;;
56171;SDS011;42052;41.634;-0.946;2023-06-22T04:08:27;1.98;;;1.75;;
56171;SDS011;42052;41.634;-0.946;2023-06-22T04:11:13;2.53;;;1.80;;
56171;SDS011;42052;41.634;-0.946;2023-06-22T04:14:00;2.10;;;1.90;;
56171;SDS011;42052;41.634;-0.946;2023-06-22T04:16:46;1.90;;;1.70;;
56171;SDS011;42052;41.634;-0.946;2023-06-22T04:19:32;1.83;;;1.50;;
56171;SDS011;42052;41.634;-0.946;2023-06-22T04:22:18;2.90;;;1.77;;
56171;SDS011;42052;41.634;-0.946;2023-06-22T04:25:05;2.25;;;1.75;;
56171;SDS011;42052;41.634;-0.946;2023-06-22T04:27:53;2.20;;;1.73;;
56171;SDS011;42052;41.634;-0.946;2023-06-22T04:30:39;2.03;;;1.65;;
56171;SDS011;42052;41.634;-0.946;2023-06-22T04:33:31;2.70;;;1.90;;
56171;SDS011;42052;41.634;-0.946;2023-06-22T04:36:17;2.60;;;1.80;;
56171;SDS011;42052;41.634;-0.946;2023-06-22T04:39:04;2.20;;;1.60;;
56171;SDS011;42052;41.634;-0.946;2023-06-22T04:41:55;1.98;;;1.63;;
56171;SDS011;42052;41.634;-0.946;2023-06-22T04:44:45;2.13;;;1.83;;
56171;SDS011;42052;41.634;-0.946;2023-06-22T04:47:31;2.75;;;1.95;;
56171;SDS011;42052;41.634;-0.946;2023-06-22T04:50:17;2.00;;;1.80;;
56171;SDS011;42052;41.634;-0.946;2023-06-22T04:53:06;2.50;;;1.80;;
56171;SDS011;42052;41.634;-0.946;2023-06-22T04:55:52;2.20;;;1.90;;
56171;SDS011;42052;41.634;-0.946;2023-06-22T04:58:39;1.85;;;1.70;;
56171;SDS011;42052;41.634;-0.946;2023-06-22T05:01:25;3.33;;;1.90;;
56171;SDS011;42052;41.634;-0.946;2023-06-22T05:04:11;2.55;;;1.83;;
56171;SDS011;42052;41.634;-0.946;2023-06-22T05:06:58;2.92;;;1.83;;
56171;SDS011;42052;41.634;-0.946;2023-06-22T05:09:48;2.17;;;1.92;;
56171;SDS011;42052;41.634;-0.946;2023-06-22T05:12:34;1.75;;;1.58;;
56171;SDS011;42052;41.634;-0.946;2023-06-22T05:15:20;2.53;;;1.90;;
56171;SDS011;42052;41.634;-0.946;2023-06-22T05:18:08;2.03;;;1.80;;
56171;SDS011;42052;41.634;-0.946;2023-06-22T05:20:54;2.08;;;1.88;;
56171;SDS011;42052;41.634;-0.946;2023-06-22T05:23:40;2.10;;;1.90;;
56171;SDS011;42052;41.634;-0.946;2023-06-22T05:26:26;2.40;;;1.65;;
56171;SDS011;42052;41.634;-0.946;2023-06-22T05:29:13;2.33;;;1.77;;
56171;SDS011;42052;41.634;-0.946;2023-06-22T05:31:59;2.13;;;1.90;;
56171;SDS011;42052;41.634;-0.946;2023-06-22T05:34:45;1.70;;;1.60;;
56171;SDS011;42052;41.634;-0.946;2023-06-22T05:37:31;2.33;;;1.90;;
56171;SDS011;42052;41.634;-0.946;2023-06-22T05:40:17;2.13;;;1.75;;
56171;SDS011;42052;41.634;-0.946;2023-06-22T05:43:03;2.17;;;1.85;;
56171;SDS011;42052;41.634;-0.946;2023-06-22T05:45:49;2.60;;;1.75;;
56171;SDS011;42052;41.634;-0.946;2023-06-22T05:48:35;3.47;;;1.83;;
56171;SDS011;42052;41.634;-0.946;2023-06-22T05:51:21;4.15;;;1.85;;
56171;SDS011;42052;41.634;-0.946;2023-06-22T05:54:08;2.97;;;1.80;;
56171;SDS011;42052;41.634;-0.946;2023-06-22T05:56:54;3.50;;;1.90;;
56171;SDS011;42052;41.634;-0.946;2023-06-22T05:59:40;2.42;;;1.92;;
56171;SDS011;42052;41.634;-0.946;2023-06-22T06:02:26;2.22;;;2.03;;
56171;SDS011;42052;41.634;-0.946;2023-06-22T06:05:12;3.53;;;2.00;;
56171;SDS011;42052;41.634;-0.946;2023-06-22T06:08:02;2.08;;;1.77;;
56171;SDS011;42052;41.634;-0.946;2023-06-22T06:10:52;2.60;;;1.98;;
56171;SDS011;42052;41.634;-0.946;2023-06-22T06:13:40;3.50;;;1.88;;
56171;SDS011;42052;41.634;-0.946;2023-06-22T06:16:26;3.13;;;1.88;;
56171;SDS011;42052;41.634;-0.946;2023-06-22T06:19:12;2.22;;;1.70;;
56171;SDS011;42052;41.634;-0.946;2023-06-22T06:21:58;3.15;;;1.70;;
56171;SDS011;42052;41.634;-0.946;2023-06-22T06:24:45;2.53;;;1.80;;
56171;SDS011;42052;41.634;-0.946;2023-06-22T06:27:32;2.05;;;1.73;;
56171;SDS011;42052;41.634;-0.946;2023-06-22T06:30:19;3.83;;;2.00;;
56171;SDS011;42052;41.634;-0.946;2023-06-22T06:33:05;3.10;;;1.88;;
56171;SDS011;42052;41.634;-0.946;2023-06-22T06:35:54;2.63;;;1.90;;
56171;SDS011;42052;41.634;-0.946;2023-06-22T06:38:41;2.08;;;1.83;;
56171;SDS011;42052;41.634;-0.946;2023-06-22T06:41:27;3.13;;;1.92;;
56171;SDS011;42052;41.634;-0.946;2023-06-22T06:44:13;2.30;;;1.80;;
56171;SDS011;42052;41.634;-0.946;2023-06-22T06:46:59;2.58;;;1.85;;
56171;SDS011;42052;41.634;-0.946;2023-06-22T06:49:45;3.00;;;1.80;;
56171;SDS011;42052;41.634;-0.946;2023-06-22T06:52:31;2.05;;;1.67;;
56171;SDS011;42052;41.634;-0.946;2023-06-22T06:55:18;2.65;;;1.90;;
56171;SDS011;42052;41.634;-0.946;2023-06-22T06:58:04;2.38;;;1.70;;
56171;SDS011;42052;41.634;-0.946;2023-06-22T07:00:53;2.88;;;1.80;;
56171;SDS011;42052;41.634;-0.946;2023-06-22T07:03:39;3.85;;;2.00;;
56171;SDS011;42052;41.634;-0.946;2023-06-22T07:06:25;2.63;;;1.88;;
56171;SDS011;42052;41.634;-0.946;2023-06-22T07:09:14;2.95;;;1.80;;
56171;SDS011;42052;41.634;-0.946;2023-06-22T07:12:00;2.20;;;2.00;;
56171;SDS011;42052;41.634;-0.946;2023-06-22T07:14:46;2.15;;;1.60;;
56171;SDS011;42052;41.634;-0.946;2023-06-22T07:17:32;3.35;;;2.03;;
56171;SDS011;42052;41.634;-0.946;2023-06-22T07:20:18;2.58;;;1.92;;
56171;SDS011;42052;41.634;-0.946;2023-06-22T07:23:05;3.08;;;1.75;;
56171;SDS011;42052;41.634;-0.946;2023-06-22T07:25:51;4.32;;;2.08;;
56171;SDS011;42052;41.634;-0.946;2023-06-22T07:28:37;2.20;;;1.80;;
56171;SDS011;42052;41.634;-0.946;2023-06-22T07:31:26;2.58;;;1.90;;
56171;SDS011;42052;41.634;-0.946;2023-06-22T07:34:12;2.20;;;1.80;;
56171;SDS011;42052;41.634;-0.946;2023-06-22T07:36:58;1.73;;;1.60;;
56171;SDS011;42052;41.634;-0.946;2023-06-22T07:39:44;2.45;;;1.95;;
56171;SDS011;42052;41.634;-0.946;2023-06-22T07:42:31;2.38;;;1.80;;
56171;SDS011;42052;41.634;-0.946;2023-06-22T07:45:18;2.50;;;1.90;;
56171;SDS011;42052;41.634;-0.946;2023-06-22T07:48:04;3.83;;;2.00;;
56171;SDS011;42052;41.634;-0.946;2023-06-22T07:50:50;2.00;;;1.80;;
56171;SDS011;42052;41.634;-0.946;2023-06-22T07:53:39;2.53;;;1.60;;
56171;SDS011;42052;41.634;-0.946;2023-06-22T07:56:29;2.30;;;1.63;;
56171;SDS011;42052;41.634;-0.946;2023-06-22T07:59:15;2.38;;;1.80;;
56171;SDS011;42052;41.634;-0.946;2023-06-22T08:02:01;2.30;;;1.83;;
56171;SDS011;42052;41.634;-0.946;2023-06-22T08:04:48;2.08;;;1.80;;
56171;SDS011;42052;41.634;-0.946;2023-06-22T08:07:35;2.72;;;1.80;;
56171;SDS011;42052;41.634;-0.946;2023-06-22T08:10:22;2.63;;;1.92;;
56171;SDS011;42052;41.634;-0.946;2023-06-22T08:13:09;2.33;;;1.77;;
56171;SDS011;42052;41.634;-0.946;2023-06-22T08:15:56;2.00;;;1.80;;
56171;SDS011;42052;41.634;-0.946;2023-06-22T08:18:42;2.47;;;2.00;;
56171;SDS011;42052;41.634;-0.946;2023-06-22T08:21:28;2.72;;;1.92;;
56171;SDS011;42052;41.634;-0.946;2023-06-22T08:24:14;3.05;;;1.70;;
56171;SDS011;42052;41.634;-0.946;2023-06-22T08:27:00;2.05;;;1.67;;
56171;SDS011;42052;41.634;-0.946;2023-06-22T08:29:46;3.47;;;2.05;;
56171;SDS011;42052;41.634;-0.946;2023-06-22T08:32:33;2.97;;;1.80;;
56171;SDS011;42052;41.634;-0.946;2023-06-22T08:35:19;2.35;;;1.80;;
56171;SDS011;42052;41.634;-0.946;2023-06-22T08:38:05;2.45;;;1.85;;
56171;SDS011;42052;41.634;-0.946;2023-06-22T08:40:52;3.10;;;1.80;;
56171;SDS011;42052;41.634;-0.946;2023-06-22T08:43:38;2.28;;;1.73;;
56171;SDS011;42052;41.634;-0.946;2023-06-22T08:46:24;3.05;;;1.80;;
56171;SDS011;42052;41.634;-0.946;2023-06-22T08:49:15;3.17;;;2.00;;
56171;SDS011;42052;41.634;-0.946;2023-06-22T08:52:01;2.17;;;1.63;;
56171;SDS011;42052;41.634;-0.946;2023-06-22T08:54:47;2.50;;;1.90;;
56171;SDS011;42052;41.634;-0.946;2023-06-22T08:57:33;2.75;;;1.90;;
56171;SDS011;42052;41.634;-0.946;2023-06-22T09:00:19;2.25;;;1.80;;
56171;SDS011;42052;41.634;-0.946;2023-06-22T09:03:06;3.30;;;1.80;;
56171;SDS011;42052;41.634;-0.946;2023-06-22T09:05:52;2.00;;;1.65;;
56171;SDS011;42052;41.634;-0.946;2023-06-22T09:08:38;2.22;;;1.77;;
56171;SDS011;42052;41.634;-0.946;2023-06-22T09:11:24;2.35;;;1.90;;
56171;SDS011;42052;41.634;-0.946;2023-06-22T09:14:10;2.30;;;1.63;;
56171;SDS011;42052;41.634;-0.946;2023-06-22T09:16:57;2.40;;;1.80;;
56171;SDS011;42052;41.634;-0.946;2023-06-22T09:19:43;3.05;;;1.90;;
56171;SDS011;42052;41.634;-0.946;2023-06-22T09:22:29;2.00;;;1.80;;
56171;SDS011;42052;41.634;-0.946;2023-06-22T09:25:15;2.15;;;1.70;;
56171;SDS011;42052;41.634;-0.946;2023-06-22T09:28:01;3.25;;;1.88;;
56171;SDS011;42052;41.634;-0.946;2023-06-22T09:30:47;2.95;;;1.85;;
56171;SDS011;42052;41.634;-0.946;2023-06-22T09:33:33;2.47;;;1.70;;
56171;SDS011;42052;41.634;-0.946;2023-06-22T09:36:20;4.05;;;1.83;;
56171;SDS011;42052;41.634;-0.946;2023-06-22T09:39:07;2.35;;;1.70;;
56171;SDS011;42052;41.634;-0.946;2023-06-22T09:41:53;1.85;;;1.70;;
56171;SDS011;42052;41.634;-0.946;2023-06-22T09:44:39;2.10;;;1.92;;
56171;SDS011;42052;41.634;-0.946;2023-06-22T09:47:25;2.50;;;1.80;;
56171;SDS011;42052;41.634;-0.946;2023-06-22T09:50:11;3.67;;;1.92;;
56171;SDS011;42052;41.634;-0.946;2023-06-22T09:52:57;1.98;;;1.67;;
56171;SDS011;42052;41.634;-0.946;2023-06-22T09:55:43;3.55;;;1.75;;
56171;SDS011;42052;41.634;-0.946;2023-06-22T09:58:29;1.70;;;1.60;;
56171;SDS011;42052;41.634;-0.946;2023-06-22T10:01:15;2.63;;;1.90;;
56171;SDS011;42052;41.634;-0.946;2023-06-22T10:04:02;1.80;;;1.70;;
56171;SDS011;42052;41.634;-0.946;2023-06-22T10:06:48;2.15;;;1.80;;
56171;SDS011;42052;41.634;-0.946;2023-06-22T10:09:34;2.05;;;1.70;;
56171;SDS011;42052;41.634;-0.946;2023-06-22T10:12:20;1.90;;;1.60;;
56171;SDS011;42052;41.634;-0.946;2023-06-22T10:15:06;1.80;;;1.60;;
56171;SDS011;42052;41.634;-0.946;2023-06-22T10:17:53;2.13;;;1.75;;
56171;SDS011;42052;41.634;-0.946;2023-06-22T10:20:39;2.38;;;1.75;;
56171;SDS011;42052;41.634;-0.946;2023-06-22T10:23:25;2.38;;;1.70;;
56171;SDS011;42052;41.634;-0.946;2023-06-22T10:26:11;2.83;;;1.90;;
56171;SDS011;42052;41.634;-0.946;2023-06-22T10:28:57;4.53;;;1.63;;
56171;SDS011;42052;41.634;-0.946;2023-06-22T10:31:43;2.00;;;1.80;;
56171;SDS011;42052;41.634;-0.946;2023-06-22T10:34:29;2.05;;;1.60;;
56171;SDS011;42052;41.634;-0.946;2023-06-22T10:37:15;2.28;;;1.80;;
56171;SDS011;42052;41.634;-0.946;2023-06-22T10:40:01;3.22;;;1.70;;
56171;SDS011;42052;41.634;-0.946;2023-06-22T10:42:49;1.95;;;1.65;;
56171;SDS011;42052;41.634;-0.946;2023-06-22T10:45:35;1.85;;;1.58;;
56171;SDS011;42052;41.634;-0.946;2023-06-22T10:48:21;2.30;;;1.83;;
56171;SDS011;42052;41.634;-0.946;2023-06-22T10:51:07;1.90;;;1.67;;
56171;SDS011;42052;41.634;-0.946;2023-06-22T10:53:53;1.90;;;1.60;;
56171;SDS011;42052;41.634;-0.946;2023-06-22T10:56:40;1.85;;;1.50;;
56171;SDS011;42052;41.634;-0.946;2023-06-22T10:59:26;3.53;;;1.70;;
56171;SDS011;42052;41.634;-0.946;2023-06-22T11:02:14;2.15;;;1.50;;
56171;SDS011;42052;41.634;-0.946;2023-06-22T11:05:00;2.15;;;1.80;;
56171;SDS011;42052;41.634;-0.946;2023-06-22T11:07:46;3.53;;;1.70;;
56171;SDS011;42052;41.634;-0.946;2023-06-22T11:10:34;3.08;;;1.70;;
56171;SDS011;42052;41.634;-0.946;2023-06-22T11:13:20;2.10;;;1.70;;
56171;SDS011;42052;41.634;-0.946;2023-06-22T11:16:06;1.73;;;1.60;;
56171;SDS011;42052;41.634;-0.946;2023-06-22T11:18:52;2.10;;;1.60;;
56171;SDS011;42052;41.634;-0.946;2023-06-22T11:21:38;1.88;;;1.65;;
56171;SDS011;42052;41.634;-0.946;2023-06-22T11:24:24;2.30;;;1.80;;
56171;SDS011;42052;41.634;-0.946;2023-06-22T11:27:10;2.25;;;1.65;;
56171;SDS011;42052;41.634;-0.946;2023-06-22T11:29:57;2.10;;;1.50;;
56171;SDS011;42052;41.634;-0.946;2023-06-22T11:32:43;2.13;;;1.58;;
56171;SDS011;42052;41.634;-0.946;2023-06-22T11:35:29;2.67;;;1.63;;
56171;SDS011;42052;41.634;-0.946;2023-06-22T11:38:15;1.95;;;1.45;;
56171;SDS011;42052;41.634;-0.946;2023-06-22T11:41:02;2.17;;;1.67;;
56171;SDS011;42052;41.634;-0.946;2023-06-22T11:43:48;1.77;;;1.50;;
56171;SDS011;42052;41.634;-0.946;2023-06-22T11:46:34;1.50;;;1.40;;
56171;SDS011;42052;41.634;-0.946;2023-06-22T11:49:20;2.08;;;1.70;;
56171;SDS011;42052;41.634;-0.946;2023-06-22T11:52:06;1.65;;;1.40;;
56171;SDS011;42052;41.634;-0.946;2023-06-22T11:54:52;2.30;;;1.52;;
56171;SDS011;42052;41.634;-0.946;2023-06-22T11:57:39;1.77;;;1.45;;
56171;SDS011;42052;41.634;-0.946;2023-06-22T12:00:41;2.72;;;1.70;;
56171;SDS011;42052;41.634;-0.946;2023-06-22T12:03:27;2.30;;;1.70;;
56171;SDS011;42052;41.634;-0.946;2023-06-22T12:06:13;1.83;;;1.35;;
56171;SDS011;42052;41.634;-0.946;2023-06-22T12:08:59;2.22;;;1.65;;
56171;SDS011;42052;41.634;-0.946;2023-06-22T12:11:45;1.92;;;1.67;;
56171;SDS011;42052;41.634;-0.946;2023-06-22T12:14:31;2.10;;;1.88;;
56171;SDS011;42052;41.634;-0.946;2023-06-22T12:17:17;1.63;;;1.52;;
56171;SDS011;42052;41.634;-0.946;2023-06-22T12:20:03;1.80;;;1.55;;
56171;SDS011;42052;41.634;-0.946;2023-06-22T12:22:50;2.95;;;1.83;;
56171;SDS011;42052;41.634;-0.946;2023-06-22T12:25:38;1.50;;;1.40;;
56171;SDS011;42052;41.634;-0.946;2023-06-22T12:28:24;1.92;;;1.50;;
56171;SDS011;42052;41.634;-0.946;2023-06-22T12:31:10;3.10;;;1.60;;
56171;SDS011;42052;41.634;-0.946;2023-06-22T12:33:56;1.70;;;1.50;;
56171;SDS011;42052;41.634;-0.946;2023-06-22T12:36:42;2.35;;;1.60;;
56171;SDS011;42052;41.634;-0.946;2023-06-22T12:39:28;2.10;;;1.90;;
56171;SDS011;42052;41.634;-0.946;2023-06-22T12:42:15;2.25;;;1.73;;
56171;SDS011;42052;41.634;-0.946;2023-06-22T12:45:02;2.13;;;1.80;;
56171;SDS011;42052;41.634;-0.946;2023-06-22T12:47:48;2.05;;;1.70;;
56171;SDS011;42052;41.634;-0.946;2023-06-22T12:50:36;1.88;;;1.58;;
56171;SDS011;42052;41.634;-0.946;2023-06-22T12:53:22;2.20;;;1.60;;
56171;SDS011;42052;41.634;-0.946;2023-06-22T12:56:09;2.40;;;1.88;;
56171;SDS011;42052;41.634;-0.946;2023-06-22T12:58:55;3.17;;;1.90;;
56171;SDS011;42052;41.634;-0.946;2023-06-22T13:01:41;1.83;;;1.63;;
56171;SDS011;42052;41.634;-0.946;2023-06-22T13:04:29;1.95;;;1.58;;
56171;SDS011;42052;41.634;-0.946;2023-06-22T13:07:15;2.95;;;1.63;;
56171;SDS011;42052;41.634;-0.946;2023-06-22T13:10:01;2.45;;;1.35;;
56171;SDS011;42052;41.634;-0.946;2023-06-22T13:12:47;2.58;;;1.55;;
56171;SDS011;42052;41.634;-0.946;2023-06-22T13:15:33;2.33;;;1.70;;
56171;SDS011;42052;41.634;-0.946;2023-06-22T13:18:19;2.17;;;1.70;;
56171;SDS011;42052;41.634;-0.946;2023-06-22T13:21:06;1.98;;;1.45;;
56171;SDS011;42052;41.634;-0.946;2023-06-22T13:23:52;2.38;;;1.50;;
56171;SDS011;42052;41.634;-0.946;2023-06-22T13:26:38;3.00;;;1.63;;
56171;SDS011;42052;41.634;-0.946;2023-06-22T13:29:24;2.00;;;1.60;;
56171;SDS011;42052;41.634;-0.946;2023-06-22T13:32:10;2.38;;;1.80;;
56171;SDS011;42052;41.634;-0.946;2023-06-22T13:34:56;2.10;;;1.90;;
56171;SDS011;42052;41.634;-0.946;2023-06-22T13:37:43;2.33;;;1.70;;
56171;SDS011;42052;41.634;-0.946;2023-06-22T13:40:29;1.95;;;1.67;;
56171;SDS011;42052;41.634;-0.946;2023-06-22T13:43:16;1.77;;;1.63;;
56171;SDS011;42052;41.634;-0.946;2023-06-22T13:46:02;2.47;;;1.65;;
56171;SDS011;42052;41.634;-0.946;2023-06-22T13:48:48;3.72;;;1.63;;
56171;SDS011;42052;41.634;-0.946;2023-06-22T13:51:36;2.28;;;1.80;;
56171;SDS011;42052;41.634;-0.946;2023-06-22T13:54:22;1.63;;;1.50;;
56171;SDS011;42052;41.634;-0.946;2023-06-22T13:57:08;1.80;;;1.60;;
56171;SDS011;42052;41.634;-0.946;2023-06-22T13:59:54;3.03;;;1.73;;
56171;SDS011;42052;41.634;-0.946;2023-06-22T14:02:40;2.15;;;1.70;;
56171;SDS011;42052;41.634;-0.946;2023-06-22T14:05:26;1.63;;;1.52;;
56171;SDS011;42052;41.634;-0.946;2023-06-22T14:08:12;2.38;;;1.70;;
56171;SDS011;42052;41.634;-0.946;2023-06-22T14:11:00;1.60;;;1.50;;
56171;SDS011;42052;41.634;-0.946;2023-06-22T14:13:46;1.90;;;1.60;;
56171;SDS011;42052;41.634;-0.946;2023-06-22T14:16:32;1.50;;;1.40;;
56171;SDS011;42052;41.634;-0.946;2023-06-22T14:19:18;1.92;;;1.60;;
56171;SDS011;42052;41.634;-0.946;2023-06-22T14:22:04;1.90;;;1.55;;
56171;SDS011;42052;41.634;-0.946;2023-06-22T14:24:51;2.45;;;1.70;;
56171;SDS011;42052;41.634;-0.946;2023-06-22T14:27:37;1.80;;;1.65;;
56171;SDS011;42052;41.634;-0.946;2023-06-22T14:30:23;2.00;;;1.65;;
56171;SDS011;42052;41.634;-0.946;2023-06-22T14:33:09;2.13;;;1.55;;
56171;SDS011;42052;41.634;-0.946;2023-06-22T14:35:55;1.75;;;1.60;;
56171;SDS011;42052;41.634;-0.946;2023-06-22T14:38:41;2.05;;;1.50;;
56171;SDS011;42052;41.634;-0.946;2023-06-22T14:41:28;1.90;;;1.48;;
56171;SDS011;42052;41.634;-0.946;2023-06-22T14:44:15;1.90;;;1.60;;
56171;SDS011;42052;41.634;-0.946;2023-06-22T14:47:01;1.95;;;1.33;;
56171;SDS011;42052;41.634;-0.946;2023-06-22T14:49:48;1.65;;;1.40;;
56171;SDS011;42052;41.634;-0.946;2023-06-22T14:52:34;1.40;;;1.30;;
56171;SDS011;42052;41.634;-0.946;2023-06-22T14:55:20;1.55;;;1.45;;
56171;SDS011;42052;41.634;-0.946;2023-06-22T14:58:06;2.28;;;1.77;;
56171;SDS011;42052;41.634;-0.946;2023-06-22T15:00:52;1.60;;;1.40;;
56171;SDS011;42052;41.634;-0.946;2023-06-22T15:03:38;2.13;;;1.50;;
56171;SDS011;42052;41.634;-0.946;2023-06-22T15:06:25;1.95;;;1.45;;
56171;SDS011;42052;41.634;-0.946;2023-06-22T15:09:12;1.50;;;1.40;;
56171;SDS011;42052;41.634;-0.946;2023-06-22T15:11:58;1.83;;;1.48;;
56171;SDS011;42052;41.634;-0.946;2023-06-22T15:14:46;1.52;;;1.40;;
56171;SDS011;42052;41.634;-0.946;2023-06-22T15:17:32;1.50;;;1.40;;
56171;SDS011;42052;41.634;-0.946;2023-06-22T15:20:18;2.72;;;1.50;;
56171;SDS011;42052;41.634;-0.946;2023-06-22T15:23:05;1.73;;;1.50;;
56171;SDS011;42052;41.634;-0.946;2023-06-22T15:25:52;1.70;;;1.38;;
56171;SDS011;42052;41.634;-0.946;2023-06-22T15:28:39;2.35;;;1.60;;
56171;SDS011;42052;41.634;-0.946;2023-06-22T15:31:26;2.85;;;1.50;;
56171;SDS011;42052;41.634;-0.946;2023-06-22T15:34:15;3.25;;;1.38;;
56171;SDS011;42052;41.634;-0.946;2023-06-22T15:37:01;2.05;;;1.73;;
56171;SDS011;42052;41.634;-0.946;2023-06-22T15:39:47;1.80;;;1.38;;
56171;SDS011;42052;41.634;-0.946;2023-06-22T15:42:33;1.90;;;1.70;;
56171;SDS011;42052;41.634;-0.946;2023-06-22T15:45:20;2.08;;;1.60;;
56171;SDS011;42052;41.634;-0.946;2023-06-22T15:48:06;1.92;;;1.40;;
56171;SDS011;42052;41.634;-0.946;2023-06-22T15:50:52;1.65;;;1.27;;
56171;SDS011;42052;41.634;-0.946;2023-06-22T15:53:40;2.33;;;1.48;;
56171;SDS011;42052;41.634;-0.946;2023-06-22T15:56:26;3.45;;;1.50;;
56171;SDS011;42052;41.634;-0.946;2023-06-22T15:59:12;1.77;;;1.55;;
56171;SDS011;42052;41.634;-0.946;2023-06-22T16:01:58;4.20;;;1.42;;
56171;SDS011;42052;41.634;-0.946;2023-06-22T16:04:44;2.00;;;1.50;;
56171;SDS011;42052;41.634;-0.946;2023-06-22T16:07:30;2.00;;;1.50;;
56171;SDS011;42052;41.634;-0.946;2023-06-22T16:10:17;1.27;;;1.17;;
56171;SDS011;42052;41.634;-0.946;2023-06-22T16:13:05;2.47;;;1.60;;
56171;SDS011;42052;41.634;-0.946;2023-06-22T16:15:51;3.60;;;1.63;;
56171;SDS011;42052;41.634;-0.946;2023-06-22T16:18:37;12.02;;;2.75;;
56171;SDS011;42052;41.634;-0.946;2023-06-22T16:21:25;18.63;;;4.40;;
56171;SDS011;42052;41.634;-0.946;2023-06-22T16:24:11;34.20;;;7.25;;
56171;SDS011;42052;41.634;-0.946;2023-06-22T16:26:57;39.47;;;8.18;;
56171;SDS011;42052;41.634;-0.946;2023-06-22T16:29:43;35.95;;;7.50;;
56171;SDS011;42052;41.634;-0.946;2023-06-22T16:32:30;100.03;;;25.38;;
56171;SDS011;42052;41.634;-0.946;2023-06-22T16:35:16;68.82;;;18.08;;
56171;SDS011;42052;41.634;-0.946;2023-06-22T16:38:02;111.05;;;26.95;;